Grassy Butte, North Dakota
Current Conditions -  °F | °C
As of 5:56 PM on Friday 24 Oct 2014 (Local Time) from KDIK Reporting Station
Clear Clear  
Wind Chill: 50°   Ceiling: Unl
Heat Index: 50°   Visibility: 10mi
Dew Point: 29°   Wind: 10mph
Humidity: 44%   Direction: 240°WSW
Pressure: 30"   Gusts: NA
Location:  47.39°N, 103.25°W
Report Text: KDIK 242356Z AUTO 24009KT 10SM CLR 10/M02 A3000 RMK AO2 SLP166 T01001017 10183 20100 51010
Loading
Personal Weather Stations






























Interactive Weather Map
Tropical Storm Tracking
New forecast layout! Learn more

10-Day Weather Forecast

Advertisements
Track Severe Weather on mobile